Eielson Air Force Base Fairbanks US
ICAO: PAEI
IATA:
Category: Medium
Scheduled Services:

Elevation: 547 ft
TransAlt. 18000 ft.

Airport Communications:
FAIRBANKS APP:125.35
ASOS:118.525
ATIS:27.35
CLNC DEL:34.37
FAIRBANKS DEP:126.5
GND:121.8
RANGE CON:125.3
SOURDOUGH:139.6
IGLOO:25.95
PMSV METRO:34.66
CHENA CON:23.81
PTD:37.22
TWR:127.2

PAEI Zoom In..

Runways:

(A) RW 14 length 14530 ft width 150 ft
ILS 110.50 / hdg 136

(B) RW 32 length 14530 ft width 150 ft
ILS 109.90 / hdg 316

Location; PAEI
Day. 24 / Time. 13.26 Zulu
* Altimeter: 29.61
* Temperature: 08° c. 46.4°f.
* Wind from: 000° Speed 00 kn.
Dewpoint: 07° c.
Visibility: 3 Statute Miles.
Clouds: Overcast 400 ft.
Conditions: Light Rain.Conditions: Mist.

PAEI 241326Z AUTO 00000KT 3SM -RA BR OVC004 08/07 A2961 RMK AO2 SLP032


Wind - Calm.

 
 
jpsmedia.com for Web Design SOUNDCLOUD worldairports.se 2018   terms of use